Time;durP1;ratioP1;P1;durP2;ratioP2;P2;SDS_P1;SDS_P2;PMS_P1;PMS_P2;Temp;Humidity;BMP_temperature;BMP_pressure;BME280_temperature;BME280_humidity;BME280_pressure;Samples;Min_cycle;Max_cycle;Signal;HPM_P1;HPM_P2
2022/06/17 00:00:11;;;;;;;6.85;5.78;;;19.30;99.90;;;;;;5076127;28;25146;-61
2022/06/17 00:02:37;;;;;;;9.30;5.10;;;19.30;99.90;;;;;;5075741;28;25081;-61
2022/06/17 00:05:03;;;;;;;11.95;5.93;;;19.20;99.90;;;;;;5066860;28;25096;-60
2022/06/17 00:07:29;;;;;;;8.50;5.25;;;19.20;99.90;;;;;;5049111;28;25097;-61
2022/06/17 00:09:54;;;;;;;11.00;5.50;;;19.20;99.90;;;;;;5056056;28;25132;-61
2022/06/17 00:12:20;;;;;;;14.20;6.00;;;19.10;99.90;;;;;;5063029;28;25064;-61
2022/06/17 00:17:29;;;;;;;8.82;5.40;;;19.10;99.90;;;;;;5069165;28;25199;-62
2022/06/17 00:19:55;;;;;;;9.68;5.97;;;19.00;99.90;;;;;;5059755;28;25063;-61
2022/06/17 00:22:20;;;;;;;11.52;6.10;;;19.00;99.90;;;;;;5059951;28;25171;-61
2022/06/17 00:24:48;;;;;;;12.13;6.30;;;19.00;99.90;;;;;;5071077;28;25050;-60
2022/06/17 00:27:13;;;;;;;11.13;5.55;;;18.90;99.90;;;;;;5067636;28;25082;-61
2022/06/17 00:29:39;;;;;;;9.15;5.10;;;19.00;99.90;;;;;;5051558;28;25076;-61
2022/06/17 00:32:05;;;;;;;10.82;5.65;;;19.00;99.90;;;;;;5064138;28;25074;-63
2022/06/17 00:34:30;;;;;;;10.55;5.55;;;19.00;99.90;;;;;;5052741;28;25067;-62
2022/06/17 00:36:59;;;;;;;8.50;5.43;;;19.00;99.90;;;;;;5063016;28;25135;-61
2022/06/17 00:39:29;;;;;;;7.53;5.00;;;19.00;99.90;;;;;;5058350;28;25090;-61
2022/06/17 00:41:59;;;;;;;9.85;5.53;;;19.00;99.90;;;;;;5048627;28;25067;-61
2022/06/17 00:44:34;;;;;;;11.90;5.32;;;19.00;99.90;;;;;;5055883;28;25059;-61
2022/06/17 00:47:06;;;;;;;8.27;5.53;;;18.90;99.90;;;;;;5058444;28;25081;-62
2022/06/17 00:49:53;;;;;;;7.75;5.30;;;18.90;99.90;;;;;;5056929;28;25069;-61
2022/06/17 00:52:23;;;;;;;10.25;5.32;;;18.80;99.90;;;;;;5060497;28;25069;-62
2022/06/17 00:54:56;;;;;;;10.98;6.22;;;18.90;99.90;;;;;;5063744;28;25050;-61
2022/06/17 00:57:38;;;;;;;5.65;4.47;;;18.90;99.90;;;;;;5056114;28;25129;-62
2022/06/17 01:00:23;;;;;;;8.48;4.70;;;18.90;99.90;;;;;;5058758;28;25055;-61
2022/06/17 01:02:59;;;;;;;7.47;4.45;;;18.90;99.90;;;;;;5069771;28;25094;-61
2022/06/17 01:05:34;;;;;;;7.15;4.90;;;18.90;99.90;;;;;;5058684;28;25067;-62
2022/06/17 01:08:12;;;;;;;9.23;4.95;;;19.00;99.90;;;;;;5059863;28;25066;-61
2022/06/17 01:10:41;;;;;;;8.50;4.85;;;18.90;99.90;;;;;;5057266;28;25065;-63
2022/06/17 01:13:08;;;;;;;7.10;4.97;;;18.90;99.90;;;;;;5057638;28;25059;-62
2022/06/17 01:15:37;;;;;;;9.65;4.72;;;18.80;99.90;;;;;;5067387;28;25053;-61
2022/06/17 01:18:03;;;;;;;7.70;5.22;;;18.80;99.90;;;;;;5059614;28;25075;-63
2022/06/17 01:20:30;;;;;;;10.73;5.10;;;18.70;99.90;;;;;;5055492;28;25062;-61
2022/06/17 01:22:59;;;;;;;8.73;5.22;;;18.70;99.90;;;;;;5068013;28;25057;-61
2022/06/17 01:25:28;;;;;;;10.45;5.55;;;18.70;99.90;;;;;;5059230;28;25065;-61
2022/06/17 01:28:00;;;;;;;6.80;4.90;;;18.70;99.90;;;;;;5058875;28;25065;-62
2022/06/17 01:30:54;;;;;;;7.60;5.00;;;18.70;99.90;;;;;;5060861;28;25076;-61
2022/06/17 01:33:26;;;;;;;10.90;5.20;;;18.60;99.90;;;;;;5059713;28;25096;-60
2022/06/17 01:36:03;;;;;;;12.00;5.50;;;18.60;99.90;;;;;;5061579;28;25056;-60
2022/06/17 01:38:31;;;;;;;12.32;5.47;;;18.70;99.90;;;;;;5062799;28;25088;-61
2022/06/17 01:40:59;;;;;;;6.85;5.03;;;18.80;99.90;;;;;;5054264;28;25111;-63
2022/06/17 01:43:58;;;;;;;11.63;5.47;;;18.90;99.90;;;;;;5051781;28;25074;-62
2022/06/17 01:46:34;;;;;;;6.95;4.65;;;18.90;99.90;;;;;;5056941;28;25078;-62
2022/06/17 01:49:17;;;;;;;8.75;5.80;;;18.90;99.90;;;;;;5060484;28;25051;-62
2022/06/17 01:51:50;;;;;;;10.32;5.30;;;18.90;99.90;;;;;;5066622;28;25068;-61
2022/06/17 01:54:21;;;;;;;7.88;5.07;;;18.90;99.90;;;;;;5067278;28;25055;-61
2022/06/17 01:56:50;;;;;;;13.73;5.75;;;18.80;99.90;;;;;;5058534;28;25172;-61
2022/06/17 01:59:30;;;;;;;8.82;5.75;;;18.70;99.90;;;;;;5059915;28;25159;-61
2022/06/17 02:02:00;;;;;;;8.90;6.10;;;18.60;99.90;;;;;;5063034;28;25104;-60
2022/06/17 02:04:33;;;;;;;8.00;5.53;;;18.50;99.90;;;;;;5057937;28;25124;-61
2022/06/17 02:07:07;;;;;;;6.10;5.50;;;18.50;99.90;;;;;;5055047;28;25138;-61
2022/06/17 02:09:33;;;;;;;11.80;6.30;;;18.50;99.90;;;;;;5054786;28;25146;-61
2022/06/17 02:12:03;;;;;;;13.63;6.65;;;18.50;99.90;;;;;;5045197;28;25072;-61
2022/06/17 02:14:29;;;;;;;8.68;5.85;;;18.50;99.90;;;;;;5054340;28;25081;-62
2022/06/17 02:16:56;;;;;;;6.57;5.60;;;18.60;99.90;;;;;;5051903;28;25150;-61
2022/06/17 02:19:25;;;;;;;7.63;5.72;;;18.60;99.90;;;;;;5057562;28;25106;-61
2022/06/17 02:22:05;;;;;;;7.95;5.85;;;18.60;99.90;;;;;;5062674;28;25053;-62
2022/06/17 02:24:31;;;;;;;9.98;6.03;;;18.60;99.90;;;;;;5061867;28;25105;-62
2022/06/17 02:27:00;;;;;;;8.00;6.13;;;18.60;99.90;;;;;;5063751;28;25064;-62
2022/06/17 02:29:28;;;;;;;10.70;6.18;;;18.60;99.90;;;;;;5063615;28;25074;-61
2022/06/17 02:31:55;;;;;;;9.65;6.25;;;18.60;99.90;;;;;;5062338;28;25095;-61
2022/06/17 02:34:21;;;;;;;7.03;6.07;;;18.70;99.90;;;;;;5071562;28;25057;-61
2022/06/17 02:36:58;;;;;;;8.48;6.78;;;18.70;99.90;;;;;;5066069;28;25114;-61
2022/06/17 02:39:24;;;;;;;9.73;7.03;;;18.70;99.90;;;;;;5065793;28;25152;-61
2022/06/17 02:41:51;;;;;;;10.65;6.70;;;18.60;99.90;;;;;;5064642;28;25090;-61
2022/06/17 02:44:33;;;;;;;8.40;6.50;;;18.60;99.90;;;;;;5063759;28;25153;-61
2022/06/17 02:47:01;;;;;;;9.43;6.75;;;18.60;99.90;;;;;;5063997;28;25104;-61
2022/06/17 02:49:34;;;;;;;11.55;6.50;;;18.50;99.90;;;;;;5062900;28;25076;-61
2022/06/17 02:52:03;;;;;;;11.07;6.78;;;18.40;99.90;;;;;;5056456;28;25072;-61
2022/06/17 02:54:55;;;;;;;14.18;7.28;;;18.50;99.90;;;;;;5064161;28;25066;-61
2022/06/17 02:57:24;;;;;;;10.20;6.30;;;18.50;99.90;;;;;;5046458;28;25065;-61
2022/06/17 02:59:59;;;;;;;12.02;7.47;;;18.50;99.90;;;;;;5079257;28;25067;-61
2022/06/17 03:02:30;;;;;;;10.27;6.78;;;18.50;99.90;;;;;;5072121;28;25085;-61
2022/06/17 03:04:58;;;;;;;9.05;6.60;;;18.50;99.90;;;;;;5059937;28;25091;-61
2022/06/17 03:07:28;;;;;;;8.52;6.70;;;18.50;99.90;;;;;;5071137;28;24848;-61
2022/06/17 03:09:53;;;;;;;8.77;6.40;;;18.50;99.90;;;;;;5044874;28;25152;-62
2022/06/17 03:12:23;;;;;;;9.63;6.45;;;18.60;99.90;;;;;;5067652;28;25148;-62
2022/06/17 03:14:57;;;;;;;8.52;6.90;;;18.60;99.90;;;;;;5062545;28;25049;-62
2022/06/17 03:17:24;;;;;;;11.50;7.22;;;18.60;99.90;;;;;;5052862;28;25060;-62
2022/06/17 03:19:53;;;;;;;8.68;6.22;;;18.60;99.90;;;;;;5058622;28;25112;-61
2022/06/17 03:22:19;;;;;;;9.95;6.55;;;18.60;99.90;;;;;;5064893;28;25072;-61
2022/06/17 03:24:53;;;;;;;8.20;6.50;;;18.60;99.90;;;;;;5036823;28;25054;-62
2022/06/17 03:27:25;;;;;;;9.60;6.30;;;18.60;99.90;;;;;;5066684;28;25058;-62
2022/06/17 03:29:55;;;;;;;9.73;6.70;;;18.70;99.90;;;;;;5063116;28;25121;-61
2022/06/17 03:32:27;;;;;;;10.00;6.78;;;18.80;99.90;;;;;;5061154;28;25083;-61
2022/06/17 03:34:55;;;;;;;9.38;5.82;;;18.90;99.90;;;;;;5064446;28;25098;-61
2022/06/17 03:37:24;;;;;;;11.02;6.63;;;18.90;99.90;;;;;;5054716;28;25071;-61
2022/06/17 03:39:58;;;;;;;10.25;6.15;;;18.90;99.90;;;;;;5064926;28;25082;-62
2022/06/17 03:42:45;;;;;;;8.13;6.25;;;18.90;99.90;;;;;;5062807;28;25118;-62
2022/06/17 03:45:22;;;;;;;9.05;7.28;;;18.90;99.90;;;;;;5062229;28;25064;-61
2022/06/17 03:48:20;;;;;;;13.73;7.28;;;18.80;99.90;;;;;;5061893;28;25130;-61
2022/06/17 03:50:47;;;;;;;9.63;7.15;;;18.80;99.90;;;;;;5061967;28;25054;-62
2022/06/17 03:53:13;;;;;;;10.20;7.15;;;18.70;99.90;;;;;;5066155;28;25072;-60
2022/06/17 03:55:38;;;;;;;8.13;7.32;;;18.80;99.90;;;;;;5057351;28;25136;-61
2022/06/17 03:58:04;;;;;;;11.98;7.55;;;18.80;99.90;;;;;;5065902;28;25108;-61
2022/06/17 04:01:07;;;;;;;12.07;7.35;;;18.90;99.90;;;;;;5059502;28;25170;-60
2022/06/17 04:03:34;;;;;;;11.32;8.13;;;18.90;99.90;;;;;;5006077;28;25064;-61
2022/06/17 04:06:16;;;;;;;13.02;8.13;;;18.80;99.90;;;;;;5058369;28;25068;-62
2022/06/17 04:08:59;;;;;;;13.43;7.95;;;18.80;99.90;;;;;;5059516;28;25075;-61
2022/06/17 04:11:34;;;;;;;14.88;7.65;;;18.90;99.90;;;;;;5062337;28;25080;-61
2022/06/17 04:14:14;;;;;;;14.88;8.38;;;19.00;99.90;;;;;;5054872;28;25114;-61
2022/06/17 04:16:50;;;;;;;10.95;8.13;;;19.00;99.90;;;;;;5055920;28;25148;-61
2022/06/17 04:19:17;;;;;;;10.10;7.95;;;19.00;99.90;;;;;;5060688;28;25141;-60
2022/06/17 04:21:42;;;;;;;11.93;7.22;;;19.00;99.90;;;;;;5066045;28;25055;-61
2022/06/17 04:24:15;;;;;;;10.05;7.28;;;19.10;99.90;;;;;;5064625;28;25068;-62
2022/06/17 04:26:42;;;;;;;13.25;7.50;;;19.10;99.90;;;;;;5058868;28;25091;-61
2022/06/17 04:29:15;;;;;;;11.32;7.18;;;19.10;99.90;;;;;;5037070;28;25069;-61
2022/06/17 04:31:43;;;;;;;13.38;8.10;;;19.10;99.90;;;;;;5068852;28;25070;-61
2022/06/17 04:34:13;;;;;;;10.50;7.72;;;19.20;99.90;;;;;;5061379;28;25119;-61
2022/06/17 04:37:00;;;;;;;12.68;8.10;;;19.20;99.90;;;;;;5055521;28;25062;-62
2022/06/17 04:39:37;;;;;;;11.73;7.22;;;19.30;99.90;;;;;;5046422;28;25146;-61
2022/06/17 04:42:11;;;;;;;12.43;7.45;;;19.30;99.90;;;;;;5058975;28;25085;-61
2022/06/17 04:44:40;;;;;;;10.43;7.07;;;19.30;99.90;;;;;;5054150;28;25057;-62
2022/06/17 04:47:10;;;;;;;7.55;6.63;;;19.30;99.90;;;;;;5035818;28;25138;-62
2022/06/17 04:49:40;;;;;;;10.45;7.10;;;19.30;99.90;;;;;;5055711;28;25159;-62
2022/06/17 04:52:11;;;;;;;12.05;7.72;;;19.30;99.90;;;;;;5052989;28;25093;-61
2022/06/17 04:54:39;;;;;;;10.45;6.65;;;19.30;99.90;;;;;;5073948;28;25044;-61
2022/06/17 04:57:05;;;;;;;11.10;7.25;;;19.30;99.90;;;;;;5062614;28;25091;-62
2022/06/17 04:59:44;;;;;;;11.95;7.20;;;19.30;99.90;;;;;;5072847;28;25173;-61
2022/06/17 05:02:20;;;;;;;10.82;7.32;;;19.40;99.90;;;;;;5068157;28;25083;-61
2022/06/17 05:04:51;;;;;;;9.77;6.78;;;19.40;99.90;;;;;;5061645;28;25060;-61
2022/06/17 05:07:17;;;;;;;10.35;7.32;;;19.40;99.90;;;;;;5061722;28;25066;-61
2022/06/17 05:09:45;;;;;;;12.18;7.00;;;19.30;99.90;;;;;;5059274;28;25051;-61
2022/06/17 05:12:27;;;;;;;8.77;7.13;;;19.30;99.90;;;;;;5047802;28;25063;-61
2022/06/17 05:15:16;;;;;;;13.55;7.18;;;19.40;99.90;;;;;;5060456;28;25070;-62
2022/06/17 05:17:42;;;;;;;13.77;7.82;;;19.40;99.90;;;;;;5059437;28;25075;-61
2022/06/17 05:20:12;;;;;;;10.18;7.28;;;19.40;99.90;;;;;;5039073;28;25078;-62
2022/06/17 05:22:47;;;;;;;12.73;8.10;;;19.40;99.90;;;;;;5061384;28;25151;-61
2022/06/17 05:25:20;;;;;;;10.52;7.35;;;19.50;99.90;;;;;;5060780;28;25050;-61
2022/06/17 05:27:46;;;;;;;11.63;7.60;;;19.40;99.90;;;;;;5064405;28;25157;-62
2022/06/17 05:30:11;;;;;;;9.95;7.78;;;19.40;99.90;;;;;;5060714;28;25122;-61
2022/06/17 05:32:39;;;;;;;12.13;7.57;;;19.50;99.90;;;;;;5060755;28;25101;-61
2022/06/17 05:35:05;;;;;;;12.63;8.18;;;19.50;99.90;;;;;;5056088;28;25063;-61
2022/06/17 05:37:31;;;;;;;13.23;8.95;;;19.50;99.90;;;;;;5057451;28;25067;-61
2022/06/17 05:39:56;;;;;;;13.38;7.82;;;19.40;99.90;;;;;;5058513;28;25058;-62
2022/06/17 05:42:22;;;;;;;12.25;8.40;;;19.50;99.90;;;;;;5060113;28;25079;-62
2022/06/17 05:44:48;;;;;;;11.10;7.90;;;19.50;99.90;;;;;;5051843;28;25092;-61
2022/06/17 05:47:13;;;;;;;13.50;9.00;;;19.50;99.90;;;;;;5067391;28;25069;-62
2022/06/17 05:49:40;;;;;;;10.50;7.60;;;19.50;99.90;;;;;;5059255;28;25072;-62
2022/06/17 05:52:06;;;;;;;11.98;8.27;;;19.50;99.90;;;;;;5052005;28;25149;-62
2022/06/17 05:54:32;;;;;;;15.77;9.02;;;19.50;99.90;;;;;;5058262;28;25058;-61
2022/06/17 05:56:57;;;;;;;17.88;8.68;;;19.60;99.90;;;;;;5056853;28;25058;-61
2022/06/17 05:59:23;;;;;;;15.07;8.27;;;19.70;99.90;;;;;;5057428;28;25181;-63
2022/06/17 06:01:49;;;;;;;15.50;8.63;;;19.80;99.90;;;;;;5053533;28;25079;-61
2022/06/17 06:04:14;;;;;;;12.68;8.63;;;19.80;99.90;;;;;;5045355;28;25115;-61
2022/06/17 06:06:40;;;;;;;19.50;9.43;;;19.80;99.90;;;;;;5059097;28;25070;-62
2022/06/17 06:09:06;;;;;;;11.93;8.30;;;19.80;99.90;;;;;;5065140;28;25073;-61
2022/06/17 06:11:31;;;;;;;11.70;9.25;;;19.80;99.90;;;;;;5058988;28;25117;-62
2022/06/17 06:13:57;;;;;;;11.77;8.60;;;19.90;99.90;;;;;;5058424;28;25075;-61
2022/06/17 06:16:23;;;;;;;12.85;9.30;;;20.00;99.90;;;;;;5058296;28;25077;-61
2022/06/17 06:18:50;;;;;;;14.20;8.82;;;20.10;99.90;;;;;;5057041;28;25058;-62
2022/06/17 06:21:17;;;;;;;15.05;9.40;;;20.40;99.90;;;;;;5059398;28;25082;-64
2022/06/17 06:23:42;;;;;;;17.20;9.50;;;20.60;99.90;;;;;;5074698;28;25092;-62
2022/06/17 06:26:20;;;;;;;12.88;8.57;;;20.90;99.50;;;;;;5067549;28;25097;-62
2022/06/17 06:28:46;;;;;;;15.30;8.55;;;21.10;97.60;;;;;;5056817;28;25072;-62
2022/06/17 06:31:29;;;;;;;16.90;8.95;;;21.20;98.00;;;;;;5077228;28;25020;-62
2022/06/17 06:33:55;;;;;;;15.10;8.38;;;21.40;96.10;;;;;;5064005;28;25075;-64
2022/06/17 06:36:21;;;;;;;14.63;8.93;;;21.40;96.00;;;;;;5059371;28;25055;-63
2022/06/17 06:38:48;;;;;;;20.48;9.38;;;21.70;95.40;;;;;;5042458;28;25048;-62
2022/06/17 06:41:14;;;;;;;15.52;8.90;;;21.70;94.40;;;;;;5063287;28;25117;-61
2022/06/17 06:43:41;;;;;;;23.52;9.75;;;21.60;95.50;;;;;;5063522;28;25063;-63
2022/06/17 06:46:11;;;;;;;16.33;9.43;;;21.80;94.70;;;;;;5061687;28;25088;-62
2022/06/17 06:48:37;;;;;;;19.98;9.80;;;22.10;92.50;;;;;;5064240;28;25141;-63
2022/06/17 06:51:03;;;;;;;17.50;10.05;;;22.40;91.70;;;;;;5066304;28;25080;-62
2022/06/17 06:53:28;;;;;;;17.00;9.52;;;22.30;90.90;;;;;;5066159;28;25091;-63
2022/06/17 06:55:54;;;;;;;16.05;9.85;;;22.60;91.00;;;;;;5065156;28;25069;-62
2022/06/17 06:58:23;;;;;;;15.65;9.90;;;23.00;89.50;;;;;;5062171;28;25092;-61
2022/06/17 07:00:54;;;;;;;19.42;10.40;;;23.20;82.60;;;;;;5068994;28;25065;-62
2022/06/17 07:03:20;;;;;;;19.73;10.80;;;23.10;75.20;;;;;;5054261;28;25101;-63
2022/06/17 07:05:54;;;;;;;16.10;9.55;;;23.00;82.00;;;;;;5064362;28;25068;-62
2022/06/17 07:08:22;;;;;;;16.38;9.90;;;23.30;86.60;;;;;;5051298;28;25073;-62
2022/06/17 07:10:49;;;;;;;12.18;8.85;;;23.20;80.30;;;;;;5058475;28;25127;-63
2022/06/17 07:13:15;;;;;;;11.95;8.40;;;23.30;78.70;;;;;;5056240;28;25194;-60
2022/06/17 07:15:46;;;;;;;16.73;8.88;;;23.50;78.90;;;;;;5062980;28;25092;-60
2022/06/17 07:18:20;;;;;;;14.85;8.40;;;24.00;73.90;;;;;;5063678;28;25071;-62
2022/06/17 07:20:52;;;;;;;17.30;8.70;;;24.10;70.20;;;;;;5068196;28;25124;-62
2022/06/17 07:23:25;;;;;;;11.43;7.28;;;24.10;65.70;;;;;;5062997;28;25074;-61
2022/06/17 07:25:52;;;;;;;11.27;6.60;;;23.90;64.60;;;;;;5066362;28;25172;-61
2022/06/17 07:28:21;;;;;;;10.82;6.90;;;23.90;54.50;;;;;;5055152;28;25092;-61
2022/06/17 07:30:51;;;;;;;11.55;6.80;;;23.80;53.80;;;;;;5069039;28;25106;-61
2022/06/17 07:33:19;;;;;;;10.35;6.70;;;23.90;56.50;;;;;;5066811;28;25080;-62
2022/06/17 07:35:46;;;;;;;12.25;6.65;;;23.90;57.20;;;;;;5065816;28;25101;-62
2022/06/17 07:41:00;;;;;;;9.85;6.85;;;24.00;56.20;;;;;;5043076;28;25060;-62
2022/06/17 07:43:25;;;;;;;12.52;5.85;;;24.30;52.80;;;;;;5063564;28;25072;-62
2022/06/17 07:45:51;;;;;;;8.13;6.28;;;24.20;52.30;;;;;;5066780;28;25060;-64
2022/06/17 07:48:18;;;;;;;10.98;6.53;;;24.70;56.50;;;;;;5065082;28;25129;-62
2022/06/17 07:50:44;;;;;;;8.18;6.28;;;24.50;46.30;;;;;;5065602;28;25070;-62
2022/06/17 07:53:11;;;;;;;12.25;5.97;;;24.60;48.90;;;;;;5055414;28;25062;-64
2022/06/17 07:55:37;;;;;;;16.00;7.00;;;24.80;46.80;;;;;;5046642;28;25047;-61
2022/06/17 07:58:04;;;;;;;12.52;6.55;;;24.70;43.20;;;;;;5065053;28;25070;-62
2022/06/17 08:00:38;;;;;;;9.45;5.70;;;24.80;45.10;;;;;;5065124;28;25070;-63
2022/06/17 08:03:05;;;;;;;13.88;6.63;;;24.90;44.30;;;;;;5061953;28;25116;-62
2022/06/17 08:05:31;;;;;;;12.57;5.97;;;25.00;39.80;;;;;;5065054;28;25133;-62
2022/06/17 08:07:58;;;;;;;6.38;5.03;;;25.20;45.20;;;;;;5065660;28;25076;-63
2022/06/17 08:10:29;;;;;;;7.28;5.20;;;25.80;41.30;;;;;;5059848;28;25071;-62
2022/06/17 08:12:55;;;;;;;13.77;6.20;;;26.30;32.10;;;;;;5056556;28;25068;-67
2022/06/17 08:15:21;;;;;;;6.05;4.65;;;26.10;34.80;;;;;;5065266;28;25088;-62
2022/06/17 08:17:47;;;;;;;9.57;5.85;;;26.40;31.80;;;;;;5063662;28;25086;-61
2022/06/17 08:20:29;;;;;;;7.93;5.30;;;26.20;17.60;;;;;;5063351;28;25063;-62
2022/06/17 08:22:54;;;;;;;12.35;4.95;;;25.90;23.90;;;;;;5051860;28;25075;-61
2022/06/17 08:25:20;;;;;;;7.68;4.63;;;26.10;23.60;;;;;;5062088;28;25057;-62
2022/06/17 08:27:50;;;;;;;12.77;4.35;;;26.10;22.80;;;;;;5064890;28;25065;-61
2022/06/17 08:30:18;;;;;;;9.13;4.50;;;26.30;25.90;;;;;;5062426;28;25073;-63
2022/06/17 08:32:46;;;;;;;18.70;4.60;;;26.80;22.50;;;;;;5070906;28;25103;-63
2022/06/17 08:35:13;;;;;;;11.50;5.60;;;27.20;20.40;;;;;;5042001;28;25075;-63
2022/06/17 08:37:39;;;;;;;8.23;4.45;;;27.20;6.80;;;;;;5066390;28;25097;-63
2022/06/17 08:40:26;;;;;;;14.75;4.75;;;27.10;13.90;;;;;;5062299;28;25101;-62
2022/06/17 08:43:00;;;;;;;12.18;4.45;;;27.50;17.10;;;;;;5072577;28;25056;-62
2022/06/17 08:45:29;;;;;;;12.18;4.78;;;27.50;15.30;;;;;;5071882;28;25056;-64
2022/06/17 08:47:57;;;;;;;9.10;5.25;;;27.50;9.20;;;;;;5070304;28;25052;-63
2022/06/17 08:50:57;;;;;;;6.75;4.85;;;27.00;4.60;;;;;;5062634;28;25066;-62
2022/06/17 08:54:05;;;;;;;11.45;4.78;;;26.60;14.90;;;;;;5058812;28;25088;-61
2022/06/17 08:56:35;;;;;;;8.48;5.40;;;26.70;23.50;;;;;;4943453;28;25147;-62
2022/06/17 08:59:24;;;;;;;14.55;6.78;;;26.90;19.10;;;;;;5043685;28;25081;-61
2022/06/17 09:01:58;;;;;;;7.30;4.25;;;27.30;17.90;;;;;;5059929;28;25058;-62
2022/06/17 09:04:44;;;;;;;9.43;5.50;;;27.20;9.10;;;;;;5063585;28;25077;-63
2022/06/17 09:07:21;;;;;;;38.72;7.60;;;27.10;1.80;;;;;;5064172;28;25155;-63
2022/06/17 09:10:22;;;;;;;6.63;4.20;;;26.90;3.90;;;;;;5064103;28;25135;-63
2022/06/17 09:13:18;;;;;;;8.45;4.10;;;27.40;6.80;;;;;;5057909;28;25057;-62
2022/06/17 09:16:02;;;;;;;5.35;3.97;;;27.50;7.90;;;;;;5062169;28;25184;-62
2022/06/17 09:18:29;;;;;;;5.90;4.05;;;28.00;1.00;;;;;;5060658;28;25080;-61
2022/06/17 09:21:13;;;;;;;10.63;4.00;;;28.00;1.00;;;;;;5062004;28;25063;-62
2022/06/17 09:23:40;;;;;;;7.35;3.50;;;27.90;1.00;;;;;;5056822;28;25082;-61
2022/06/17 09:26:28;;;;;;;6.93;3.50;;;27.90;5.60;;;;;;5041199;28;25093;-62
2022/06/17 09:29:11;;;;;;;9.98;3.95;;;28.10;1.60;;;;;;5057099;28;25056;-61
2022/06/17 09:31:42;;;;;;;9.13;3.08;;;28.40;1.00;;;;;;5036655;28;25059;-62
2022/06/17 09:34:27;;;;;;;8.07;3.65;;;28.50;1.00;;;;;;5061756;28;25147;-61
2022/06/17 09:37:18;;;;;;;8.35;3.22;;;29.00;1.00;;;;;;5062653;28;25153;-62
2022/06/17 09:39:52;;;;;;;5.60;2.85;;;28.90;1.00;;;;;;5062459;28;25099;-61
2022/06/17 09:42:25;;;;;;;8.63;3.33;;;29.10;1.00;;;;;;5060018;28;25051;-62
2022/06/17 09:45:17;;;;;;;10.10;2.92;;;28.60;1.00;;;;;;5056388;28;25056;-62
2022/06/17 09:47:48;;;;;;;7.10;4.20;;;28.50;1.00;;;;;;5059426;28;25072;-62
2022/06/17 09:50:26;;;;;;;8.93;3.70;;;28.40;1.00;;;;;;5063222;28;25132;-61
2022/06/17 09:53:01;;;;;;;7.60;3.50;;;28.40;1.00;;;;;;5057097;28;25074;-62
2022/06/17 09:55:37;;;;;;;9.10;3.33;;;28.60;1.00;;;;;;5056947;28;25057;-62
2022/06/17 09:58:18;;;;;;;6.35;2.80;;;28.80;1.00;;;;;;5038513;28;25052;-61
2022/06/17 10:00:51;;;;;;;7.63;3.00;;;28.40;1.00;;;;;;5058613;28;25048;-61
2022/06/17 10:03:26;;;;;;;8.15;2.80;;;28.60;1.00;;;;;;5059854;28;25147;-61
2022/06/17 10:06:10;;;;;;;7.25;3.05;;;29.10;1.00;;;;;;5064200;28;25115;-62
2022/06/17 10:09:11;;;;;;;8.00;3.22;;;28.90;1.00;;;;;;5062298;28;25063;-61
2022/06/17 10:11:39;;;;;;;5.18;2.67;;;28.90;1.00;;;;;;5058202;28;25059;-63
2022/06/17 10:14:24;;;;;;;9.45;3.53;;;29.50;1.00;;;;;;5061949;28;25067;-62
2022/06/17 10:20:06;;;;;;;6.90;3.00;;;28.90;1.00;;;;;;5061254;28;25065;-62
2022/06/17 10:23:10;;;;;;;15.48;3.67;;;29.40;1.00;;;;;;5070161;28;25079;-61
2022/06/17 10:25:45;;;;;;;9.02;2.95;;;29.30;1.00;;;;;;4997387;28;25068;-62
2022/06/17 10:28:22;;;;;;;5.70;2.35;;;29.20;1.00;;;;;;5061798;28;25072;-62
2022/06/17 10:31:01;;;;;;;5.20;2.42;;;29.30;1.00;;;;;;5073048;28;25063;-63
2022/06/17 10:33:30;;;;;;;3.83;2.67;;;29.80;1.00;;;;;;5050499;28;25059;-63
2022/06/17 10:35:56;;;;;;;8.88;2.83;;;29.90;1.00;;;;;;5045170;28;25069;-63
2022/06/17 10:38:26;;;;;;;5.30;2.63;;;29.70;1.00;;;;;;5080683;28;25077;-62
2022/06/17 10:40:52;;;;;;;3.42;2.30;;;29.80;1.00;;;;;;5073352;28;25074;-61
2022/06/17 10:43:21;;;;;;;10.93;2.45;;;29.70;1.00;;;;;;5061883;28;25064;-61
2022/06/17 10:45:48;;;;;;;4.15;1.90;;;30.10;1.00;;;;;;5068010;28;25073;-63
2022/06/17 10:48:28;;;;;;;3.72;1.92;;;30.10;1.00;;;;;;5061327;28;25107;-61
2022/06/17 10:50:54;;;;;;;6.00;1.95;;;30.10;1.00;;;;;;5060197;28;25081;-62
2022/06/17 10:53:41;;;;;;;8.32;2.22;;;30.60;1.00;;;;;;5055749;28;25092;-60
2022/06/17 10:56:15;;;;;;;4.55;2.10;;;30.90;1.00;;;;;;5060670;28;25065;-61
2022/06/17 10:59:07;;;;;;;4.15;2.33;;;31.00;1.00;;;;;;5060319;28;25049;-62
2022/06/17 11:01:45;;;;;;;2.70;1.90;;;30.60;1.00;;;;;;5064761;28;25063;-62
2022/06/17 11:04:15;;;;;;;3.92;2.10;;;30.60;1.00;;;;;;5066386;28;25126;-62
2022/06/17 11:06:50;;;;;;;6.18;2.35;;;30.90;1.00;;;;;;5062129;28;25058;-62
2022/06/17 11:09:28;;;;;;;11.95;2.42;;;30.90;1.00;;;;;;5055761;28;25122;-63
2022/06/17 11:12:04;;;;;;;5.78;2.28;;;30.90;1.00;;;;;;5061853;28;25077;-63
2022/06/17 11:14:40;;;;;;;8.02;2.40;;;31.30;1.00;;;;;;5066384;28;25144;-62
2022/06/17 11:17:30;;;;;;;7.18;2.75;;;31.70;1.00;;;;;;5061869;28;25060;-64
2022/06/17 11:20:00;;;;;;;4.93;2.20;;;32.10;1.00;;;;;;5062799;28;25130;-63
2022/06/17 11:22:36;;;;;;;4.25;2.08;;;31.20;1.00;;;;;;5045426;28;25077;-63
2022/06/17 11:25:24;;;;;;;2.75;1.80;;;30.50;1.00;;;;;;5058929;28;25059;-63
2022/06/17 11:27:56;;;;;;;5.35;2.25;;;30.50;1.00;;;;;;5059249;28;25074;-64
2022/06/17 11:30:31;;;;;;;3.60;2.10;;;30.80;1.00;;;;;;5053145;28;25084;-63
2022/06/17 11:32:59;;;;;;;4.38;2.50;;;30.90;1.00;;;;;;5060569;28;25058;-64
2022/06/17 11:35:33;;;;;;;9.73;2.17;;;30.90;1.00;;;;;;5063540;28;25075;-64
2022/06/17 11:38:01;;;;;;;4.72;1.88;;;31.00;1.00;;;;;;5062797;28;25041;-65
2022/06/17 11:40:35;;;;;;;16.23;2.25;;;30.80;1.00;;;;;;5060358;28;25072;-62
2022/06/17 11:43:04;;;;;;;3.60;1.95;;;30.60;1.00;;;;;;5061417;28;25068;-63
2022/06/17 11:45:30;;;;;;;3.50;2.00;;;30.80;1.00;;;;;;5042964;28;25143;-63
2022/06/17 11:48:14;;;;;;;5.10;1.45;;;31.30;1.00;;;;;;5064822;28;25068;-63
2022/06/17 11:50:58;;;;;;;5.07;2.40;;;31.20;1.00;;;;;;5064841;28;25079;-63
2022/06/17 11:53:24;;;;;;;2.95;1.88;;;31.00;1.00;;;;;;5061065;28;25061;-62
2022/06/17 11:55:50;;;;;;;6.00;2.03;;;30.90;1.00;;;;;;5066048;28;25079;-62
2022/06/17 11:58:18;;;;;;;3.78;1.60;;;30.70;1.00;;;;;;5065241;28;25078;-62
2022/06/17 12:00:51;;;;;;;2.85;2.17;;;30.70;1.00;;;;;;5062063;28;25144;-62
2022/06/17 12:03:38;;;;;;;6.38;2.10;;;31.10;1.00;;;;;;5065333;28;25117;-62
2022/06/17 12:06:16;;;;;;;5.13;2.05;;;30.20;1.00;;;;;;5065528;28;25073;-62
2022/06/17 12:08:46;;;;;;;2.08;1.80;;;30.30;1.00;;;;;;5028854;28;25167;-63
2022/06/17 12:11:16;;;;;;;8.30;2.60;;;30.70;1.00;;;;;;5057252;28;25089;-64
2022/06/17 12:13:48;;;;;;;1.77;1.65;;;31.00;1.00;;;;;;5041024;28;25098;-63
2022/06/17 12:16:19;;;;;;;1.90;1.67;;;30.90;1.00;;;;;;5057482;28;25060;-65
2022/06/17 12:18:52;;;;;;;6.20;2.15;;;30.90;1.00;;;;;;5060752;28;25068;-63
2022/06/17 12:21:33;;;;;;;4.90;2.22;;;30.80;1.00;;;;;;5079449;28;25075;-63
2022/06/17 12:24:24;;;;;;;3.20;2.30;;;30.60;1.00;;;;;;5059465;28;25060;-64
2022/06/17 12:27:21;;;;;;;3.75;2.17;;;30.40;1.00;;;;;;5061487;28;25280;-63
2022/06/17 12:29:54;;;;;;;6.35;2.20;;;30.40;1.00;;;;;;5063367;28;25146;-63
2022/06/17 12:32:30;;;;;;;6.38;2.42;;;30.80;1.00;;;;;;5070275;28;25067;-63
2022/06/17 12:35:21;;;;;;;9.27;2.55;;;30.70;1.00;;;;;;5063500;28;25070;-63
2022/06/17 12:38:12;;;;;;;3.22;2.40;;;30.60;1.00;;;;;;5065629;28;25075;-63
2022/06/17 12:41:20;;;;;;;6.93;2.30;;;30.90;1.00;;;;;;5059903;28;25100;-63
2022/06/17 12:43:46;;;;;;;5.03;2.63;;;31.20;1.00;;;;;;4957140;28;25121;-63
2022/06/17 12:46:15;;;;;;;8.35;3.05;;;30.80;1.00;;;;;;5041443;28;25136;-63
2022/06/17 12:48:57;;;;;;;8.32;2.40;;;30.50;1.00;;;;;;5072077;28;24950;-64
2022/06/17 12:54:58;;;;;;;8.68;2.42;;;30.90;1.00;;;;;;5051566;28;25113;-63
2022/06/17 12:57:56;;;;;;;8.57;2.42;;;30.60;1.00;;;;;;5051881;28;25086;-63
2022/06/17 13:00:37;;;;;;;5.57;2.33;;;30.40;1.00;;;;;;5040053;28;25075;-63
2022/06/17 13:03:47;;;;;;;6.88;2.40;;;30.50;1.00;;;;;;5062640;28;25063;-62
2022/06/17 13:06:31;;;;;;;9.88;2.92;;;30.80;1.00;;;;;;5020806;28;25144;-63
2022/06/17 13:09:22;;;;;;;10.15;2.55;;;30.40;1.00;;;;;;5058379;28;25174;-62
2022/06/17 13:11:55;;;;;;;9.55;2.85;;;30.30;1.00;;;;;;5057605;28;25167;-62
2022/06/17 13:14:56;;;;;;;5.47;2.97;;;30.60;1.00;;;;;;5065429;28;25087;-64
2022/06/17 13:17:44;;;;;;;9.25;2.55;;;30.90;1.00;;;;;;5054533;28;25177;-63
2022/06/17 13:20:20;;;;;;;7.43;2.42;;;30.90;1.00;;;;;;5054497;28;25139;-63
2022/06/17 13:23:02;;;;;;;11.25;3.03;;;30.80;1.00;;;;;;5059688;28;25109;-64
2022/06/17 13:25:38;;;;;;;6.53;2.40;;;30.80;1.00;;;;;;5061000;28;25137;-62
2022/06/17 13:28:33;;;;;;;4.85;2.30;;;30.70;1.00;;;;;;5033777;28;25122;-63